createdAt,value
2023-05-22T00:02:02.678Z,85.74
2023-05-22T00:08:11.488Z,85.68
2023-05-22T00:11:04.155Z,85.99
2023-05-22T00:13:58.517Z,85.70
2023-05-22T00:16:50.940Z,86.57
2023-05-22T00:20:02.891Z,86.87
2023-05-22T00:22:56.787Z,86.06
2023-05-22T00:28:45.935Z,85.39
2023-05-22T00:34:56.770Z,85.94
2023-05-22T00:37:48.882Z,86.27
2023-05-22T00:40:41.175Z,87.29
2023-05-22T00:43:34.254Z,86.68
2023-05-22T00:46:26.854Z,86.33
2023-05-22T00:49:24.060Z,86.08
2023-05-22T00:52:18.144Z,85.63
2023-05-22T00:55:12.257Z,85.93
2023-05-22T00:58:07.536Z,86.42
2023-05-22T01:01:01.031Z,87.53
2023-05-22T01:03:55.516Z,87.21
2023-05-22T01:10:18.874Z,89.27
2023-05-22T01:13:29.502Z,88.35
2023-05-22T01:16:26.060Z,88.30
2023-05-22T01:22:58.147Z,89.89
2023-05-22T01:26:04.754Z,89.30
2023-05-22T01:29:10.036Z,89.97
2023-05-22T01:32:05.927Z,90.07
2023-05-22T01:35:01.052Z,91.37
2023-05-22T01:37:55.580Z,93.19
2023-05-22T01:40:41.594Z,93.77
2023-05-22T01:43:33.808Z,92.60
2023-05-22T01:46:26.880Z,91.41
2023-05-22T01:49:21.959Z,91.36
2023-05-22T01:52:22.546Z,90.92
2023-05-22T01:55:20.293Z,92.56
2023-05-22T01:58:28.210Z,93.45
2023-05-22T02:01:20.851Z,94.08
2023-05-22T02:04:14.750Z,93.05
2023-05-22T02:07:05.164Z,94.15
2023-05-22T02:09:59.314Z,93.81
2023-05-22T02:12:52.239Z,92.59
2023-05-22T02:15:46.640Z,92.19
2023-05-22T02:18:41.595Z,92.46
2023-05-22T02:21:37.003Z,92.61
2023-05-22T02:24:32.505Z,93.96
2023-05-22T02:27:24.904Z,92.64
2023-05-22T02:30:17.403Z,93.89
2023-05-22T02:33:12.955Z,93.77
2023-05-22T02:36:10.690Z,92.81
2023-05-22T02:39:03.283Z,92.11
2023-05-22T02:41:57.549Z,92.38
2023-05-22T02:44:49.998Z,93.69
2023-05-22T02:47:43.177Z,94.07
2023-05-22T02:50:36.116Z,93.00
2023-05-22T02:53:31.070Z,92.35
2023-05-22T02:56:27.688Z,93.09
2023-05-22T02:59:22.236Z,92.15
2023-05-22T03:02:16.467Z,92.28
2023-05-22T03:05:09.811Z,92.55
2023-05-22T03:11:14.442Z,91.60
2023-05-22T03:17:24.928Z,91.18
2023-05-22T03:23:30.702Z,91.07
2023-05-22T03:26:23.397Z,91.29
2023-05-22T03:29:18.743Z,91.06
2023-05-22T03:32:12.279Z,90.96
2023-05-22T03:35:07.637Z,93.46
2023-05-22T03:37:59.996Z,94.41
2023-05-22T03:40:52.894Z,92.88
2023-05-22T03:43:47.036Z,93.22
2023-05-22T03:46:40.253Z,93.14
2023-05-22T03:49:33.008Z,92.32
2023-05-22T03:52:27.515Z,92.55
2023-05-22T03:55:20.030Z,92.21
2023-05-22T03:58:13.054Z,92.75
2023-05-22T04:01:06.384Z,92.43
2023-05-22T04:03:58.963Z,92.11
2023-05-22T04:06:52.860Z,91.82
2023-05-22T04:09:46.514Z,92.60
2023-05-22T04:12:38.753Z,92.86
2023-05-22T04:15:33.742Z,92.58
2023-05-22T04:18:25.868Z,92.06
2023-05-22T04:21:18.947Z,92.02
2023-05-22T04:24:12.288Z,91.40
2023-05-22T04:27:06.571Z,90.89
2023-05-22T04:30:02.200Z,90.56
2023-05-22T04:32:54.892Z,90.18
2023-05-22T04:35:48.149Z,89.69
2023-05-22T04:38:41.198Z,89.38
2023-05-22T04:42:05.651Z,89.58
2023-05-22T04:45:00.850Z,89.54
2023-05-22T04:48:21.485Z,89.18
2023-05-22T04:51:14.232Z,88.87
2023-05-22T04:54:07.119Z,88.27
2023-05-22T04:57:00.385Z,88.00
2023-05-22T05:03:01.251Z,86.49
2023-05-22T05:05:54.053Z,86.78
2023-05-22T05:08:47.915Z,85.35
2023-05-22T05:11:58.237Z,84.97
2023-05-22T05:14:47.351Z,84.44
2023-05-22T05:17:40.958Z,84.20
2023-05-22T05:20:37.578Z,82.65
2023-05-22T05:23:29.909Z,82.01
2023-05-22T05:26:24.076Z,81.42
2023-05-22T05:29:17.631Z,79.94
2023-05-22T05:32:24.398Z,77.50
2023-05-22T05:35:22.759Z,75.22
2023-05-22T05:38:23.350Z,74.62
2023-05-22T05:41:16.696Z,73.21
2023-05-22T05:44:11.073Z,73.15
2023-05-22T05:47:04.565Z,72.34
2023-05-22T05:53:18.309Z,72.35
2023-05-22T05:59:39.668Z,68.90
2023-05-22T06:06:05.165Z,63.85
2023-05-22T06:12:40.574Z,57.51
2023-05-22T06:15:34.389Z,53.44
2023-05-22T06:18:27.054Z,52.16
2023-05-22T06:21:15.919Z,52.47
2023-05-22T06:24:08.142Z,50.92
2023-05-22T06:27:01.494Z,54.27
2023-05-22T06:29:56.481Z,56.60
2023-05-22T06:32:52.574Z,56.27
2023-05-22T06:35:45.067Z,56.40
2023-05-22T06:39:03.382Z,56.41
2023-05-22T06:42:28.169Z,59.54
2023-05-22T06:45:47.097Z,61.08
2023-05-22T06:49:01.742Z,62.45
2023-05-22T06:52:04.466Z,63.19
2023-05-22T06:55:04.273Z,66.87
2023-05-22T06:57:57.059Z,65.72
2023-05-22T07:00:51.796Z,62.87
2023-05-22T07:03:51.126Z,63.34
2023-05-22T07:06:59.724Z,63.11
2023-05-22T07:09:52.223Z,64.62
2023-05-22T07:13:10.245Z,62.45
2023-05-22T07:16:03.265Z,60.88
2023-05-22T07:19:08.830Z,61.79
2023-05-22T07:22:03.268Z,63.73
2023-05-22T07:24:58.284Z,60.03
2023-05-22T07:27:58.217Z,57.67
2023-05-22T07:30:49.564Z,60.12
2023-05-22T07:33:41.927Z,58.00
2023-05-22T07:39:49.825Z,56.32
2023-05-22T07:42:42.251Z,57.87
2023-05-22T07:45:32.438Z,55.24
2023-05-22T07:48:27.951Z,57.55
2023-05-22T07:54:32.505Z,55.97
2023-05-22T07:57:26.462Z,56.30
2023-05-22T08:00:22.126Z,55.96
2023-05-22T08:03:15.190Z,53.80
2023-05-22T08:06:08.355Z,52.43
2023-05-22T08:09:02.229Z,51.92
2023-05-22T08:15:16.525Z,52.56
2023-05-22T08:21:58.085Z,51.78
2023-05-22T08:24:51.356Z,51.05
2023-05-22T08:27:44.228Z,50.52
2023-05-22T08:30:39.158Z,49.45
2023-05-22T08:33:32.178Z,50.14
2023-05-22T08:36:25.324Z,48.09
2023-05-22T08:39:19.835Z,43.66
2023-05-22T08:42:12.190Z,41.33
2023-05-22T08:45:06.972Z,39.29
2023-05-22T08:48:01.969Z,36.33
2023-05-22T08:50:57.415Z,37.27
2023-05-22T08:53:52.660Z,41.30
2023-05-22T08:56:55.636Z,41.51
2023-05-22T08:59:49.586Z,39.76
2023-05-22T09:02:43.108Z,42.67
2023-05-22T09:05:37.452Z,41.88
2023-05-22T09:08:30.381Z,41.79
2023-05-22T09:11:22.945Z,39.52
2023-05-22T09:14:15.939Z,37.81
2023-05-22T09:17:09.508Z,35.01
2023-05-22T09:20:04.640Z,35.24
2023-05-22T09:22:58.414Z,35.23
2023-05-22T09:26:08.274Z,34.69
2023-05-22T09:29:00.705Z,36.88
2023-05-22T09:31:53.020Z,37.98
2023-05-22T09:34:47.341Z,40.63
2023-05-22T09:37:45.774Z,39.30
2023-05-22T09:40:40.436Z,38.14
2023-05-22T09:43:34.622Z,38.92
2023-05-22T09:46:27.465Z,36.93
2023-05-22T09:49:20.179Z,36.08
2023-05-22T09:52:13.510Z,34.82
2023-05-22T09:58:43.928Z,35.48
2023-05-22T10:01:37.400Z,35.81
2023-05-22T10:04:32.339Z,35.55
2023-05-22T10:07:28.218Z,37.07
2023-05-22T10:10:22.932Z,37.76
2023-05-22T10:13:15.719Z,41.87
2023-05-22T10:16:09.327Z,38.78
2023-05-22T10:19:41.734Z,37.84
2023-05-22T10:22:36.449Z,35.49
2023-05-22T10:26:01.142Z,38.26
2023-05-22T10:28:58.493Z,38.45
2023-05-22T10:32:15.502Z,38.25
2023-05-22T10:35:19.610Z,36.79
2023-05-22T10:38:35.788Z,37.29
2023-05-22T10:41:22.296Z,35.39
2023-05-22T10:47:11.398Z,34.46
2023-05-22T10:53:24.026Z,33.94
2023-05-22T10:56:11.386Z,33.03
2023-05-22T10:58:58.251Z,36.00
2023-05-22T11:06:08.082Z,36.07
2023-05-22T11:09:00.853Z,37.49
2023-05-22T11:12:19.302Z,36.63
2023-05-22T11:15:13.455Z,34.47
2023-05-22T11:18:06.739Z,36.28
2023-05-22T11:21:00.046Z,37.32
2023-05-22T11:27:14.711Z,35.91
2023-05-22T11:33:28.907Z,38.76
2023-05-22T11:39:30.361Z,40.25
2023-05-22T11:42:25.010Z,37.86
2023-05-22T11:45:18.506Z,39.52
2023-05-22T11:48:13.918Z,38.45
2023-05-22T11:51:07.725Z,35.10
2023-05-22T11:54:00.667Z,39.61
2023-05-22T11:57:21.819Z,39.06
2023-05-22T12:00:17.045Z,36.54
2023-05-22T12:06:25.983Z,35.45
2023-05-22T12:09:18.627Z,38.91
2023-05-22T12:12:12.154Z,41.51
2023-05-22T12:15:06.995Z,40.04
2023-05-22T12:18:01.157Z,39.83
2023-05-22T12:20:55.871Z,42.86
2023-05-22T12:23:49.353Z,43.08
2023-05-22T12:26:41.611Z,44.86
2023-05-22T12:29:34.695Z,44.51
2023-05-22T12:32:30.463Z,44.61
2023-05-22T12:35:25.282Z,45.04
2023-05-22T12:38:17.450Z,45.99
2023-05-22T12:41:10.579Z,46.28
2023-05-22T12:44:04.394Z,46.91
2023-05-22T12:46:57.504Z,48.39
2023-05-22T12:50:27.814Z,49.58
2023-05-22T12:53:22.042Z,49.90
2023-05-22T12:56:14.576Z,50.12
2023-05-22T13:02:20.910Z,50.63
2023-05-22T13:05:13.852Z,51.33
2023-05-22T13:08:06.241Z,53.26
2023-05-22T13:10:59.731Z,53.29
2023-05-22T13:17:09.149Z,54.57
2023-05-22T13:20:01.581Z,55.52
2023-05-22T13:22:54.874Z,54.93
2023-05-22T13:28:51.243Z,52.67
2023-05-22T13:31:43.758Z,51.10
2023-05-22T13:37:48.899Z,51.22
2023-05-22T13:40:41.638Z,51.48
2023-05-22T13:43:34.577Z,51.70
2023-05-22T13:46:28.682Z,52.08
2023-05-22T13:49:21.742Z,53.04
2023-05-22T13:55:26.887Z,58.14
2023-05-22T13:58:19.779Z,53.56
2023-05-22T14:01:17.104Z,55.47
2023-05-22T14:04:10.677Z,54.64
2023-05-22T14:07:03.578Z,58.59
2023-05-22T14:09:58.035Z,58.86
2023-05-22T14:12:51.841Z,59.75
2023-05-22T14:15:46.839Z,59.34
2023-05-22T14:18:39.714Z,62.88
2023-05-22T14:21:35.905Z,67.95
2023-05-22T14:27:42.038Z,73.04
2023-05-22T14:30:34.911Z,72.65
2023-05-22T14:33:31.849Z,75.26
2023-05-22T14:36:24.620Z,77.85
2023-05-22T14:39:18.774Z,77.98
2023-05-22T14:42:11.700Z,79.26
2023-05-22T14:45:05.164Z,80.66
2023-05-22T14:48:00.290Z,80.61
2023-05-22T14:50:53.314Z,82.27
2023-05-22T14:53:45.645Z,82.35
2023-05-22T14:56:39.847Z,86.44
2023-05-22T14:59:33.736Z,91.63
2023-05-22T15:02:26.722Z,96.93
2023-05-22T15:05:19.549Z,97.95
2023-05-22T15:08:12.623Z,98.05
2023-05-22T15:11:05.530Z,98.89
2023-05-22T15:14:00.070Z,99.76
2023-05-22T15:20:06.970Z,98.90
2023-05-22T15:23:00.540Z,98.78
2023-05-22T15:25:54.323Z,98.61
2023-05-22T15:28:46.446Z,97.14
2023-05-22T15:35:01.758Z,96.81
2023-05-22T15:37:54.744Z,96.50
2023-05-22T15:40:47.542Z,96.04
2023-05-22T15:43:40.774Z,96.25
2023-05-22T15:49:45.921Z,95.71
2023-05-22T15:55:52.395Z,93.28
2023-05-22T15:58:44.546Z,93.87
2023-05-22T16:01:37.535Z,92.49
2023-05-22T16:04:30.284Z,93.30
2023-05-22T16:10:41.469Z,94.44
2023-05-22T16:13:35.780Z,95.88
2023-05-22T16:17:05.819Z,95.18
2023-05-22T16:19:58.715Z,95.79
2023-05-22T16:22:51.735Z,94.92
2023-05-22T16:29:08.121Z,97.98
2023-05-22T16:35:22.031Z,98.92
2023-05-22T16:38:15.074Z,100.00
2023-05-22T16:41:07.429Z,100.00
2023-05-22T16:44:00.795Z,100.00
2023-05-22T16:46:54.702Z,100.00
2023-05-22T16:49:47.649Z,100.00
2023-05-22T16:52:40.529Z,100.00
2023-05-22T16:55:33.475Z,100.00
2023-05-22T16:58:33.340Z,100.00
2023-05-22T17:01:27.169Z,100.00
2023-05-22T17:04:21.156Z,100.00
2023-05-22T17:10:24.917Z,100.00
2023-05-22T17:13:20.742Z,98.48
2023-05-22T17:16:13.764Z,98.39
2023-05-22T17:19:06.826Z,97.81
2023-05-22T17:25:37.008Z,97.98
2023-05-22T17:28:46.756Z,99.82
2023-05-22T17:31:39.011Z,99.82
2023-05-22T17:37:53.695Z,98.38
2023-05-22T17:44:08.939Z,97.72
2023-05-22T17:50:07.677Z,97.85
2023-05-22T17:53:00.307Z,97.76
2023-05-22T17:55:53.163Z,97.72
2023-05-22T17:58:45.670Z,97.44
2023-05-22T18:01:39.584Z,97.71
2023-05-22T18:04:32.810Z,100.00
2023-05-22T18:07:25.411Z,100.00
2023-05-22T18:10:17.963Z,99.57
2023-05-22T18:13:10.574Z,99.30
2023-05-22T18:16:04.326Z,100.00
2023-05-22T18:18:57.786Z,99.58
2023-05-22T18:21:53.414Z,99.18
2023-05-22T18:24:46.618Z,98.55
2023-05-22T18:30:53.031Z,99.44
2023-05-22T18:33:46.440Z,100.00
2023-05-22T18:36:46.913Z,100.00
2023-05-22T18:39:39.750Z,100.00
2023-05-22T18:42:32.717Z,100.00
2023-05-22T18:45:25.681Z,100.00
2023-05-22T18:48:18.875Z,100.00
2023-05-22T18:51:11.596Z,100.00
2023-05-22T18:54:06.326Z,100.00
2023-05-22T18:57:23.733Z,100.00
2023-05-22T19:00:17.128Z,100.00
2023-05-22T19:03:23.880Z,100.00
2023-05-22T19:06:18.724Z,100.00
2023-05-22T19:12:34.142Z,100.00
2023-05-22T19:19:12.713Z,100.00
2023-05-22T19:22:43.844Z,100.00
2023-05-22T19:25:36.549Z,100.00
2023-05-22T19:28:32.259Z,100.00
2023-05-22T19:31:24.835Z,100.00
2023-05-22T19:34:17.781Z,100.00
2023-05-22T19:40:17.609Z,100.00
2023-05-22T19:43:10.706Z,100.00
2023-05-22T19:46:08.581Z,100.00
2023-05-22T19:49:01.530Z,100.00
2023-05-22T19:51:56.208Z,100.00
2023-05-22T19:54:48.469Z,100.00
2023-05-22T19:57:44.210Z,100.00
2023-05-22T20:00:37.428Z,100.00
2023-05-22T20:03:32.123Z,100.00
2023-05-22T20:06:24.342Z,100.00
2023-05-22T20:09:16.665Z,100.00
2023-05-22T20:12:25.648Z,100.00
2023-05-22T20:15:17.637Z,100.00
2023-05-22T20:21:58.139Z,100.00
2023-05-22T20:25:08.588Z,99.85
2023-05-22T20:27:57.534Z,99.47
2023-05-22T20:30:51.045Z,99.41
2023-05-22T20:36:55.953Z,99.40
2023-05-22T20:43:06.506Z,99.33
2023-05-22T20:49:20.394Z,99.90
2023-05-22T20:52:13.300Z,100.00
2023-05-22T20:55:06.556Z,100.00
2023-05-22T20:57:59.700Z,100.00
2023-05-22T21:00:55.893Z,100.00
2023-05-22T21:03:49.761Z,99.71
2023-05-22T21:06:42.752Z,99.21
2023-05-22T21:09:35.758Z,99.12
2023-05-22T21:12:28.748Z,99.53
2023-05-22T21:15:21.814Z,99.53
2023-05-22T21:18:15.791Z,99.71
2023-05-22T21:24:29.444Z,98.99
2023-05-22T21:30:47.565Z,99.68
2023-05-22T21:37:07.314Z,99.32
2023-05-22T21:39:59.785Z,99.32
2023-05-22T21:42:52.548Z,99.01
2023-05-22T21:45:45.969Z,98.84
2023-05-22T21:48:38.725Z,98.98
2023-05-22T21:51:32.132Z,100.00
2023-05-22T21:54:25.934Z,100.00
2023-05-22T21:57:18.535Z,100.00
2023-05-22T22:00:12.831Z,100.00
2023-05-22T22:06:22.954Z,100.00
2023-05-22T22:09:15.757Z,100.00
2023-05-22T22:15:22.437Z,100.00
2023-05-22T22:18:15.829Z,100.00
2023-05-22T22:21:07.244Z,100.00
2023-05-22T22:23:59.564Z,100.00
2023-05-22T22:26:52.888Z,100.00
2023-05-22T22:29:45.599Z,100.00
2023-05-22T22:32:34.229Z,100.00
2023-05-22T22:35:26.471Z,100.00
2023-05-22T22:38:18.581Z,100.00
2023-05-22T22:44:33.214Z,100.00
2023-05-22T22:47:25.860Z,100.00
2023-05-22T22:50:20.116Z,100.00
2023-05-22T22:53:12.682Z,100.00
2023-05-22T22:56:09.414Z,100.00
2023-05-22T22:59:02.059Z,100.00
2023-05-22T23:01:54.729Z,100.00
2023-05-22T23:08:01.942Z,100.00
2023-05-22T23:14:10.965Z,100.00
2023-05-22T23:17:03.680Z,100.00
2023-05-22T23:23:10.326Z,100.00
2023-05-22T23:26:02.568Z,100.00
2023-05-22T23:28:53.406Z,100.00
2023-05-22T23:31:47.201Z,100.00
2023-05-22T23:34:39.522Z,100.00
2023-05-22T23:37:25.611Z,100.00
2023-05-22T23:40:13.963Z,100.00
2023-05-22T23:43:00.043Z,100.00
2023-05-22T23:45:46.294Z,100.00
2023-05-22T23:48:39.533Z,100.00
2023-05-22T23:51:25.600Z,100.00
2023-05-22T23:57:25.277Z,99.35
